Time;durP1;ratioP1;P1;durP2;ratioP2;P2;SDS_P1;SDS_P2;PMS_P1;PMS_P2;Temp;Humidity;BMP_temperature;BMP_pressure;BME280_temperature;BME280_humidity;BME280_pressure;Samples;Min_cycle;Max_cycle;Signal;HPM_P1;HPM_P2
2022/03/19 00:00:24;;;;;;;17.70;2.22;;;;;;;;;;5032572;28;20064;-62
2022/03/19 00:02:50;;;;;;;13.07;1.48;;;;;;;;;;5034135;28;20038;-62
2022/03/19 00:05:16;;;;;;;19.77;2.38;;;;;;;;;;5030495;28;20606;-62
2022/03/19 00:07:42;;;;;;;24.67;2.40;;;;;;;;;;5029419;28;20403;-62
2022/03/19 00:10:09;;;;;;;28.50;2.67;;;;;;;;;;5028335;28;20042;-62
2022/03/19 00:12:38;;;;;;;15.35;1.95;;;;;;;;;;5031761;28;20045;-61
2022/03/19 00:15:05;;;;;;;19.92;2.28;;;;;;;;;;5029592;28;20046;-62
2022/03/19 00:17:31;;;;;;;20.35;2.35;;;;;;;;;;5032489;28;20048;-63
2022/03/19 00:19:57;;;;;;;19.55;2.42;;;;;;;;;;5031774;28;20037;-61
2022/03/19 00:22:23;;;;;;;19.50;2.55;;;;;;;;;;5025749;28;20049;-63
2022/03/19 00:24:49;;;;;;;23.48;2.80;;;;;;;;;;5034140;28;20041;-63
2022/03/19 00:27:15;;;;;;;19.40;2.35;;;;;;;;;;5034758;28;20057;-61
2022/03/19 00:29:41;;;;;;;17.98;2.97;;;;;;;;;;5028765;28;20381;-63
2022/03/19 00:32:08;;;;;;;20.13;2.20;;;;;;;;;;5029751;28;20044;-62
2022/03/19 00:34:34;;;;;;;28.92;3.10;;;;;;;;;;5015943;28;20064;-61
2022/03/19 00:37:00;;;;;;;18.50;2.10;;;;;;;;;;5034574;28;20049;-61
2022/03/19 00:39:26;;;;;;;23.55;2.55;;;;;;;;;;5035152;28;20039;-61
2022/03/19 00:41:52;;;;;;;23.15;2.55;;;;;;;;;;5017078;28;20312;-62
2022/03/19 00:44:21;;;;;;;26.55;3.17;;;;;;;;;;5031080;28;20056;-61
2022/03/19 00:46:48;;;;;;;25.65;2.97;;;;;;;;;;5034298;28;20043;-61
2022/03/19 00:49:14;;;;;;;16.98;2.95;;;;;;;;;;5032630;28;20055;-63
2022/03/19 00:51:40;;;;;;;23.23;3.10;;;;;;;;;;5036286;28;20081;-61
2022/03/19 00:54:07;;;;;;;22.42;3.72;;;;;;;;;;5032445;28;20045;-62
2022/03/19 00:56:33;;;;;;;27.63;4.32;;;;;;;;;;5049299;28;20120;-62
2022/03/19 00:59:00;;;;;;;26.80;3.63;;;;;;;;;;5035607;28;20100;-62
2022/03/19 01:01:26;;;;;;;23.65;4.00;;;;;;;;;;5030309;28;20390;-62
2022/03/19 01:03:52;;;;;;;25.83;3.88;;;;;;;;;;5033111;28;20091;-62
2022/03/19 01:06:18;;;;;;;20.75;3.53;;;;;;;;;;5033877;28;20040;-62
2022/03/19 01:08:44;;;;;;;22.80;3.88;;;;;;;;;;5034579;28;20238;-61
2022/03/19 01:11:10;;;;;;;23.00;3.45;;;;;;;;;;5032086;28;20041;-61
2022/03/19 01:13:36;;;;;;;24.27;3.42;;;;;;;;;;5032274;28;20049;-62
2022/03/19 01:16:03;;;;;;;28.67;4.45;;;;;;;;;;5035815;28;20451;-62
2022/03/19 01:18:29;;;;;;;21.33;3.75;;;;;;;;;;5029671;28;20071;-61
2022/03/19 01:20:56;;;;;;;27.92;4.63;;;;;;;;;;5037228;28;20077;-62
2022/03/19 01:23:22;;;;;;;23.48;3.85;;;;;;;;;;5039232;28;20379;-61
2022/03/19 01:25:48;;;;;;;26.58;5.43;;;;;;;;;;5031545;28;20517;-61
2022/03/19 01:28:14;;;;;;;27.42;3.83;;;;;;;;;;5033916;28;20092;-61
2022/03/19 01:30:40;;;;;;;20.15;3.92;;;;;;;;;;5033850;28;20045;-62
2022/03/19 01:33:06;;;;;;;19.88;3.10;;;;;;;;;;5029818;28;20079;-61
2022/03/19 01:35:32;;;;;;;22.10;4.05;;;;;;;;;;5033576;28;20090;-62
2022/03/19 01:37:58;;;;;;;22.02;3.85;;;;;;;;;;5033723;28;20068;-62
2022/03/19 01:40:25;;;;;;;25.80;4.35;;;;;;;;;;5033566;28;20049;-62
2022/03/19 01:42:52;;;;;;;21.00;3.83;;;;;;;;;;5031255;28;20484;-61
2022/03/19 01:45:19;;;;;;;25.40;4.05;;;;;;;;;;5031545;28;20523;-62
2022/03/19 01:47:47;;;;;;;23.30;3.97;;;;;;;;;;5011947;28;20041;-62
2022/03/19 01:50:14;;;;;;;29.80;4.82;;;;;;;;;;5033250;28;20037;-61
2022/03/19 01:52:41;;;;;;;28.13;4.38;;;;;;;;;;5034228;28;20079;-62
2022/03/19 01:55:07;;;;;;;29.77;4.57;;;;;;;;;;5029011;28;20037;-63
2022/03/19 01:57:37;;;;;;;23.42;3.88;;;;;;;;;;5035562;28;20092;-61
2022/03/19 02:00:04;;;;;;;20.02;4.38;;;;;;;;;;5032165;28;20050;-62
2022/03/19 02:02:30;;;;;;;26.63;4.57;;;;;;;;;;5033713;28;20142;-61
2022/03/19 02:04:58;;;;;;;26.65;4.70;;;;;;;;;;5031293;28;20037;-63
2022/03/19 02:07:25;;;;;;;28.58;4.80;;;;;;;;;;5035763;28;20044;-62
2022/03/19 02:09:51;;;;;;;24.75;4.22;;;;;;;;;;5031355;28;20087;-61
2022/03/19 02:12:17;;;;;;;26.52;4.43;;;;;;;;;;5047950;28;20120;-61
2022/03/19 02:14:44;;;;;;;23.10;4.85;;;;;;;;;;5031546;28;20052;-62
2022/03/19 02:17:10;;;;;;;24.67;4.35;;;;;;;;;;5033618;28;20121;-61
2022/03/19 02:19:49;;;;;;;26.65;4.05;;;;;;;;;;5028575;28;20037;-61
2022/03/19 02:22:19;;;;;;;21.25;4.35;;;;;;;;;;5030173;28;20033;-62
2022/03/19 02:27:31;;;;;;;20.65;4.28;;;;;;;;;;5027461;28;20119;-61
2022/03/19 02:29:58;;;;;;;23.27;4.35;;;;;;;;;;5030927;28;20041;-61
2022/03/19 02:32:25;;;;;;;22.33;4.00;;;;;;;;;;5036778;28;20043;-62
2022/03/19 02:34:53;;;;;;;18.25;4.63;;;;;;;;;;5033047;28;20092;-61
2022/03/19 02:37:19;;;;;;;27.27;5.35;;;;;;;;;;5029847;28;20033;-62
2022/03/19 02:39:45;;;;;;;22.42;4.30;;;;;;;;;;5029318;28;20034;-62
2022/03/19 02:42:11;;;;;;;23.90;4.90;;;;;;;;;;5036418;28;20362;-61
2022/03/19 02:44:39;;;;;;;21.30;4.45;;;;;;;;;;5033254;28;20716;-62
2022/03/19 02:47:06;;;;;;;22.75;5.10;;;;;;;;;;5028407;28;20043;-61
2022/03/19 02:49:33;;;;;;;27.17;5.93;;;;;;;;;;5026227;28;20041;-61
2022/03/19 02:51:59;;;;;;;22.05;5.22;;;;;;;;;;5035244;28;20045;-61
2022/03/19 02:54:26;;;;;;;26.65;5.32;;;;;;;;;;5030419;28;20510;-61
2022/03/19 02:56:53;;;;;;;24.20;5.28;;;;;;;;;;5029844;28;20044;-62
2022/03/19 02:59:20;;;;;;;27.95;6.18;;;;;;;;;;5028816;28;20073;-62
2022/03/19 03:01:51;;;;;;;29.80;6.00;;;;;;;;;;5032457;28;20045;-63
2022/03/19 03:04:17;;;;;;;26.92;6.07;;;;;;;;;;5032191;28;20033;-62
2022/03/19 03:06:44;;;;;;;23.02;6.03;;;;;;;;;;5033243;28;20503;-61
2022/03/19 03:09:10;;;;;;;21.73;6.00;;;;;;;;;;5033377;28;20037;-61
2022/03/19 03:11:38;;;;;;;30.45;7.03;;;;;;;;;;5034587;28;20037;-63
2022/03/19 03:14:11;;;;;;;25.75;6.90;;;;;;;;;;5027887;28;20045;-62
2022/03/19 03:16:37;;;;;;;31.92;7.85;;;;;;;;;;5033419;28;20029;-62
2022/03/19 03:19:07;;;;;;;30.20;7.85;;;;;;;;;;5029166;28;20044;-61
2022/03/19 03:21:34;;;;;;;31.63;9.45;;;;;;;;;;5028251;28;20514;-61
2022/03/19 03:24:01;;;;;;;40.08;9.40;;;;;;;;;;5030770;28;20037;-63
2022/03/19 03:26:28;;;;;;;33.63;9.85;;;;;;;;;;5009918;28;20048;-62
2022/03/19 03:28:54;;;;;;;33.22;10.07;;;;;;;;;;5032512;28;20076;-62
2022/03/19 03:31:20;;;;;;;33.67;10.77;;;;;;;;;;5037107;28;20126;-62
2022/03/19 03:33:46;;;;;;;37.20;11.55;;;;;;;;;;5029748;28;20060;-63
2022/03/19 03:36:12;;;;;;;34.15;12.55;;;;;;;;;;5035434;28;20344;-62
2022/03/19 03:38:39;;;;;;;33.10;12.48;;;;;;;;;;5025710;28;20102;-61
2022/03/19 03:41:05;;;;;;;37.97;13.10;;;;;;;;;;5027357;28;20234;-61
2022/03/19 03:43:32;;;;;;;38.65;13.38;;;;;;;;;;5032561;28;20163;-62
2022/03/19 03:45:58;;;;;;;35.40;14.23;;;;;;;;;;5032901;28;20391;-62
2022/03/19 03:48:24;;;;;;;45.63;13.68;;;;;;;;;;5034331;28;20505;-62
2022/03/19 03:50:52;;;;;;;39.90;14.40;;;;;;;;;;5030464;28;20044;-61
2022/03/19 03:53:18;;;;;;;42.25;14.85;;;;;;;;;;5032643;28;20045;-62
2022/03/19 03:55:45;;;;;;;39.22;15.73;;;;;;;;;;5026550;28;20061;-62
2022/03/19 03:58:11;;;;;;;38.03;14.75;;;;;;;;;;5027171;28;20034;-62
2022/03/19 04:00:38;;;;;;;47.38;16.95;;;;;;;;;;5029434;28;20048;-62
2022/03/19 04:03:04;;;;;;;42.65;18.80;;;;;;;;;;5031277;28;20041;-62
2022/03/19 04:05:30;;;;;;;46.33;19.23;;;;;;;;;;5036254;28;20037;-61
2022/03/19 04:07:57;;;;;;;40.35;18.30;;;;;;;;;;5012851;28;20121;-61
2022/03/19 04:10:23;;;;;;;39.90;18.58;;;;;;;;;;5033436;28;20439;-62
2022/03/19 04:12:49;;;;;;;42.20;18.60;;;;;;;;;;5037857;28;20049;-64
2022/03/19 04:15:18;;;;;;;42.53;18.95;;;;;;;;;;5035245;28;20041;-62
2022/03/19 04:17:44;;;;;;;36.22;18.23;;;;;;;;;;5035650;28;20041;-61
2022/03/19 04:20:11;;;;;;;44.53;19.02;;;;;;;;;;5034629;28;20037;-62
2022/03/19 04:22:38;;;;;;;42.08;20.08;;;;;;;;;;5035949;28;20503;-61
2022/03/19 04:25:05;;;;;;;54.38;21.45;;;;;;;;;;5031541;28;20041;-63
2022/03/19 04:27:31;;;;;;;50.55;19.95;;;;;;;;;;5033865;28;20057;-61
2022/03/19 04:29:57;;;;;;;48.17;21.95;;;;;;;;;;5037224;28;20106;-62
2022/03/19 04:32:23;;;;;;;43.97;19.98;;;;;;;;;;5033068;28;20045;-62
2022/03/19 04:34:49;;;;;;;46.00;21.40;;;;;;;;;;5032293;28;20052;-62
2022/03/19 04:37:15;;;;;;;45.90;20.00;;;;;;;;;;5028778;28;20104;-61
2022/03/19 04:39:41;;;;;;;49.08;21.20;;;;;;;;;;5035271;28;20037;-62
2022/03/19 04:42:07;;;;;;;51.42;22.73;;;;;;;;;;5037657;28;20112;-62
2022/03/19 04:44:34;;;;;;;45.65;23.85;;;;;;;;;;5036888;28;20079;-61
2022/03/19 04:47:00;;;;;;;43.03;21.50;;;;;;;;;;5034371;28;20519;-62
2022/03/19 04:49:26;;;;;;;40.35;20.48;;;;;;;;;;5035828;28;20448;-62
2022/03/19 04:51:52;;;;;;;46.58;22.17;;;;;;;;;;5037606;28;20775;-63
2022/03/19 04:54:20;;;;;;;49.55;24.50;;;;;;;;;;5035725;28;20045;-61
2022/03/19 04:56:46;;;;;;;48.53;25.38;;;;;;;;;;5038498;28;20164;-61
2022/03/19 04:59:15;;;;;;;47.65;23.63;;;;;;;;;;5029730;28;20044;-62
2022/03/19 05:01:41;;;;;;;42.97;21.40;;;;;;;;;;5033800;28;20037;-62
2022/03/19 05:04:07;;;;;;;40.00;20.58;;;;;;;;;;5033159;28;20033;-62
2022/03/19 05:06:33;;;;;;;43.50;20.35;;;;;;;;;;5030807;28;20069;-62
2022/03/19 05:11:44;;;;;;;52.28;24.52;;;;;;;;;;5035083;28;20309;-61
2022/03/19 05:14:11;;;;;;;44.03;22.95;;;;;;;;;;5034602;28;20046;-62
2022/03/19 05:16:37;;;;;;;52.80;26.20;;;;;;;;;;5033388;28;20041;-62
2022/03/19 05:19:03;;;;;;;53.45;26.15;;;;;;;;;;5032517;28;20468;-62
2022/03/19 05:21:29;;;;;;;52.22;25.10;;;;;;;;;;5031106;28;20048;-61
2022/03/19 05:23:56;;;;;;;40.55;21.98;;;;;;;;;;5033068;28;20045;-62
2022/03/19 05:26:22;;;;;;;45.00;23.23;;;;;;;;;;5034184;28;20464;-61
2022/03/19 05:28:48;;;;;;;45.03;24.30;;;;;;;;;;5035253;28;20095;-62
2022/03/19 05:31:14;;;;;;;50.15;25.33;;;;;;;;;;5032562;28;20041;-62
2022/03/19 05:36:27;;;;;;;43.70;24.77;;;;;;;;;;5035309;28;20041;-62
2022/03/19 05:38:53;;;;;;;39.88;21.73;;;;;;;;;;5034773;28;20108;-62
2022/03/19 05:41:19;;;;;;;44.50;23.10;;;;;;;;;;5029309;28;20057;-62
2022/03/19 05:43:46;;;;;;;45.05;24.35;;;;;;;;;;5031346;28;20037;-62
2022/03/19 05:46:12;;;;;;;43.88;22.60;;;;;;;;;;5032370;28;20041;-61
2022/03/19 05:48:38;;;;;;;46.63;22.48;;;;;;;;;;5035715;28;20035;-61
2022/03/19 05:51:05;;;;;;;44.35;20.70;;;;;;;;;;5034620;28;20127;-64
2022/03/19 05:53:31;;;;;;;40.90;22.25;;;;;;;;;;5031678;28;20037;-62
2022/03/19 05:55:57;;;;;;;42.40;21.67;;;;;;;;;;5029112;28;20041;-61
2022/03/19 05:58:23;;;;;;;39.38;18.92;;;;;;;;;;5033144;28;20041;-62
2022/03/19 06:00:49;;;;;;;42.15;21.67;;;;;;;;;;5030731;28;20046;-62
2022/03/19 06:03:16;;;;;;;41.83;19.23;;;;;;;;;;5034628;28;20033;-62
2022/03/19 06:05:42;;;;;;;33.88;15.88;;;;;;;;;;5032839;28;20048;-62
2022/03/19 06:08:09;;;;;;;30.67;14.40;;;;;;;;;;5029270;28;20045;-61
2022/03/19 06:10:35;;;;;;;29.50;14.38;;;;;;;;;;5030174;28;20480;-63
2022/03/19 06:13:03;;;;;;;36.00;15.23;;;;;;;;;;5031824;28;20045;-62
2022/03/19 06:15:29;;;;;;;33.00;15.10;;;;;;;;;;5015230;28;20045;-62
2022/03/19 06:17:55;;;;;;;37.45;16.35;;;;;;;;;;5033301;28;20049;-61
2022/03/19 06:20:23;;;;;;;35.15;14.10;;;;;;;;;;5031753;28;20133;-61
2022/03/19 06:22:49;;;;;;;28.13;12.77;;;;;;;;;;5032288;28;20049;-62
2022/03/19 06:25:15;;;;;;;31.25;14.32;;;;;;;;;;5029910;28;20523;-61
2022/03/19 06:27:41;;;;;;;28.40;12.88;;;;;;;;;;5042518;28;20592;-63
2022/03/19 06:30:08;;;;;;;28.35;13.45;;;;;;;;;;5033913;28;20041;-62
2022/03/19 06:32:37;;;;;;;24.83;11.60;;;;;;;;;;5035102;28;20049;-62
2022/03/19 06:35:03;;;;;;;29.67;13.25;;;;;;;;;;5030755;28;20034;-61
2022/03/19 06:37:31;;;;;;;31.70;12.98;;;;;;;;;;5031168;28;20116;-62
2022/03/19 06:40:00;;;;;;;22.65;10.77;;;;;;;;;;5033863;28;21699;-61
2022/03/19 06:42:26;;;;;;;22.48;10.35;;;;;;;;;;5013950;28;20041;-62
2022/03/19 06:44:53;;;;;;;26.45;10.30;;;;;;;;;;5032261;28;20038;-62
2022/03/19 06:47:19;;;;;;;25.65;9.38;;;;;;;;;;5034180;28;20041;-62
2022/03/19 06:49:45;;;;;;;21.08;8.80;;;;;;;;;;5037176;28;20048;-62
2022/03/19 06:52:11;;;;;;;26.63;9.73;;;;;;;;;;5031648;28;20064;-62
2022/03/19 06:54:37;;;;;;;24.00;7.47;;;;;;;;;;5034228;28;20042;-62
2022/03/19 06:57:03;;;;;;;21.30;7.80;;;;;;;;;;5029923;28;20178;-63
2022/03/19 06:59:31;;;;;;;22.00;8.05;;;;;;;;;;5035739;28;20056;-62
2022/03/19 07:01:57;;;;;;;16.55;8.02;;;;;;;;;;5031631;28;20041;-61
2022/03/19 07:04:23;;;;;;;25.40;8.63;;;;;;;;;;5032275;28;20041;-62
2022/03/19 07:06:49;;;;;;;24.05;9.23;;;;;;;;;;5033118;28;20042;-61
2022/03/19 07:09:15;;;;;;;21.80;8.27;;;;;;;;;;5045394;28;20045;-61
2022/03/19 07:11:41;;;;;;;26.65;8.57;;;;;;;;;;5031262;28;20041;-62
2022/03/19 07:14:07;;;;;;;19.17;8.95;;;;;;;;;;5035542;28;20476;-62
2022/03/19 07:16:33;;;;;;;16.17;6.47;;;;;;;;;;5014975;28;20037;-62
2022/03/19 07:19:00;;;;;;;19.42;7.55;;;;;;;;;;5031911;28;20574;-61
2022/03/19 07:21:26;;;;;;;20.85;7.38;;;;;;;;;;5032937;28;20048;-62
2022/03/19 07:23:53;;;;;;;19.90;8.23;;;;;;;;;;5030464;28;20041;-62
2022/03/19 07:26:19;;;;;;;20.00;7.90;;;;;;;;;;5031624;28;20633;-62
2022/03/19 07:28:45;;;;;;;19.90;7.63;;;;;;;;;;5027875;28;20042;-62
2022/03/19 07:31:11;;;;;;;17.92;7.07;;;;;;;;;;5032823;28;20498;-62
2022/03/19 07:33:37;;;;;;;18.95;6.57;;;;;;;;;;5026924;28;20045;-62
2022/03/19 07:36:06;;;;;;;18.30;6.13;;;;;;;;;;5028529;28;20053;-61
2022/03/19 07:38:32;;;;;;;18.52;7.03;;;;;;;;;;5028835;28;20041;-60
2022/03/19 07:43:44;;;;;;;20.05;5.95;;;;;;;;;;5029434;28;20052;-63
2022/03/19 07:46:10;;;;;;;14.55;5.70;;;;;;;;;;5027017;28;20045;-60
2022/03/19 07:48:36;;;;;;;19.05;6.28;;;;;;;;;;5029346;28;20034;-62
2022/03/19 07:51:02;;;;;;;18.40;6.63;;;;;;;;;;5026559;28;20045;-62
2022/03/19 07:53:29;;;;;;;17.52;5.40;;;;;;;;;;5026428;28;20124;-61
2022/03/19 07:55:55;;;;;;;20.27;6.22;;;;;;;;;;5028305;28;20390;-61
2022/03/19 07:58:22;;;;;;;18.02;5.55;;;;;;;;;;5009069;28;20048;-61
2022/03/19 08:00:48;;;;;;;17.58;5.55;;;;;;;;;;5024493;28;20399;-61
2022/03/19 08:03:14;;;;;;;16.90;5.50;;;;;;;;;;5027424;28;20038;-62
2022/03/19 08:05:41;;;;;;;15.00;5.75;;;;;;;;;;5027203;28;20092;-61
2022/03/19 08:08:07;;;;;;;15.77;5.18;;;;;;;;;;5025420;28;20037;-62
2022/03/19 08:10:34;;;;;;;15.05;4.75;;;;;;;;;;5025993;28;20111;-63
2022/03/19 08:13:04;;;;;;;15.43;5.03;;;;;;;;;;5028102;28;20049;-62
2022/03/19 08:15:31;;;;;;;17.15;5.32;;;;;;;;;;5024423;28;20049;-62
2022/03/19 08:17:57;;;;;;;17.77;5.15;;;;;;;;;;5026369;28;20050;-62
2022/03/19 08:20:23;;;;;;;17.58;4.72;;;;;;;;;;5028104;28;20057;-63
2022/03/19 08:22:49;;;;;;;17.85;4.78;;;;;;;;;;5034330;28;20042;-62
2022/03/19 08:25:16;;;;;;;14.30;3.80;;;;;;;;;;5029255;28;20034;-62
2022/03/19 08:27:42;;;;;;;17.83;4.40;;;;;;;;;;5029646;28;20049;-63
2022/03/19 08:30:08;;;;;;;17.90;4.90;;;;;;;;;;5029390;28;20049;-61
2022/03/19 08:32:34;;;;;;;12.73;3.65;;;;;;;;;;5044390;28;20045;-62
2022/03/19 08:35:00;;;;;;;13.63;4.15;;;;;;;;;;5029542;28;20056;-63
2022/03/19 08:37:27;;;;;;;14.30;4.18;;;;;;;;;;5028048;28;20050;-62
2022/03/19 08:42:38;;;;;;;13.15;3.40;;;;;;;;;;5029596;28;20436;-63
2022/03/19 08:45:05;;;;;;;15.70;4.32;;;;;;;;;;5027940;28;20041;-63
2022/03/19 08:47:31;;;;;;;15.15;3.58;;;;;;;;;;5028024;28;20121;-63
2022/03/19 08:49:57;;;;;;;16.73;3.78;;;;;;;;;;5027843;28;20061;-63
2022/03/19 08:52:23;;;;;;;12.52;3.15;;;;;;;;;;5029480;28;20049;-62
2022/03/19 08:54:49;;;;;;;15.98;3.20;;;;;;;;;;5029231;28;20050;-62
2022/03/19 08:57:15;;;;;;;13.05;2.83;;;;;;;;;;5031709;28;20048;-63
2022/03/19 08:59:42;;;;;;;14.43;3.00;;;;;;;;;;5031487;28;20128;-62
2022/03/19 09:02:08;;;;;;;16.70;3.00;;;;;;;;;;5031495;28;20544;-63
2022/03/19 09:04:34;;;;;;;14.75;3.13;;;;;;;;;;5032359;28;20128;-61
2022/03/19 09:07:01;;;;;;;16.02;3.17;;;;;;;;;;5032858;28;20387;-62
2022/03/19 09:09:27;;;;;;;20.10;4.18;;;;;;;;;;5032320;28;20048;-63
2022/03/19 09:11:53;;;;;;;14.73;2.65;;;;;;;;;;5031388;28;20084;-62
2022/03/19 09:14:20;;;;;;;14.02;3.17;;;;;;;;;;5032374;28;20044;-62
2022/03/19 09:16:47;;;;;;;12.55;2.33;;;;;;;;;;5032640;28;20041;-62
2022/03/19 09:19:13;;;;;;;13.45;2.30;;;;;;;;;;5032394;28;20559;-62
2022/03/19 09:21:40;;;;;;;13.23;2.63;;;;;;;;;;5031766;28;20045;-61
2022/03/19 09:24:06;;;;;;;10.88;2.42;;;;;;;;;;5031807;28;20083;-62
2022/03/19 09:26:32;;;;;;;15.60;3.10;;;;;;;;;;5030568;28;20053;-62
2022/03/19 09:28:59;;;;;;;12.68;2.92;;;;;;;;;;5032227;28;20046;-62
2022/03/19 09:31:25;;;;;;;15.07;2.92;;;;;;;;;;5030412;28;20139;-63
2022/03/19 09:33:51;;;;;;;15.35;2.58;;;;;;;;;;5030416;28;20455;-62
2022/03/19 09:36:17;;;;;;;14.13;3.08;;;;;;;;;;5032027;28;20041;-62
2022/03/19 09:38:43;;;;;;;11.23;2.72;;;;;;;;;;5031772;28;20095;-62
2022/03/19 09:41:10;;;;;;;10.93;2.80;;;;;;;;;;5030435;28;20095;-62
2022/03/19 09:43:36;;;;;;;15.02;2.65;;;;;;;;;;5032045;28;20147;-63
2022/03/19 09:46:03;;;;;;;11.43;1.95;;;;;;;;;;5030263;28;20474;-62
2022/03/19 09:48:29;;;;;;;12.27;2.70;;;;;;;;;;5031361;28;20048;-63
2022/03/19 09:50:56;;;;;;;12.65;2.70;;;;;;;;;;5031928;28;20037;-62
2022/03/19 09:53:23;;;;;;;13.45;2.80;;;;;;;;;;5031430;28;20044;-61
2022/03/19 09:55:50;;;;;;;13.10;2.67;;;;;;;;;;5031601;28;20076;-62
2022/03/19 09:58:16;;;;;;;15.13;2.90;;;;;;;;;;5030139;28;20136;-61
2022/03/19 10:00:43;;;;;;;12.90;2.83;;;;;;;;;;5031481;28;20422;-62
2022/03/19 10:03:10;;;;;;;16.30;3.70;;;;;;;;;;5030123;28;20297;-61
2022/03/19 10:08:41;;;;;;;13.43;3.00;;;;;;;;;;5029257;28;20042;-64
2022/03/19 10:11:08;;;;;;;12.85;2.33;;;;;;;;;;5029649;28;20041;-63
2022/03/19 10:13:42;;;;;;;10.98;1.75;;;;;;;;;;5029308;28;20045;-63
2022/03/19 10:16:08;;;;;;;7.10;1.55;;;;;;;;;;5030935;28;20049;-62
2022/03/19 10:18:34;;;;;;;7.55;1.20;;;;;;;;;;5029799;28;20392;-63
2022/03/19 10:21:03;;;;;;;9.30;1.75;;;;;;;;;;5030994;28;20053;-63
2022/03/19 10:23:33;;;;;;;5.55;1.17;;;;;;;;;;5029452;28;20173;-63
2022/03/19 10:26:00;;;;;;;10.95;2.33;;;;;;;;;;5030835;28;20046;-63
2022/03/19 10:28:30;;;;;;;7.15;1.30;;;;;;;;;;5029055;28;20483;-63
2022/03/19 10:30:56;;;;;;;8.90;1.38;;;;;;;;;;5030843;28;20077;-63
2022/03/19 10:33:33;;;;;;;6.30;1.10;;;;;;;;;;5030798;28;20041;-62
2022/03/19 10:36:06;;;;;;;7.32;1.20;;;;;;;;;;5029698;28;20053;-63
2022/03/19 10:38:40;;;;;;;5.10;0.57;;;;;;;;;;5029244;28;20041;-62
2022/03/19 10:41:06;;;;;;;4.55;0.82;;;;;;;;;;5030947;28;20050;-62
2022/03/19 10:43:33;;;;;;;3.53;0.88;;;;;;;;;;5030421;28;20037;-62
2022/03/19 10:46:02;;;;;;;4.53;0.75;;;;;;;;;;5029195;28;20076;-62
2022/03/19 10:48:29;;;;;;;3.78;0.50;;;;;;;;;;5029050;28;20044;-62
2022/03/19 10:50:55;;;;;;;3.20;0.50;;;;;;;;;;5030476;28;20045;-62
2022/03/19 10:53:23;;;;;;;3.05;0.68;;;;;;;;;;5028583;28;20045;-62
2022/03/19 10:55:49;;;;;;;4.22;0.60;;;;;;;;;;5028837;28;20080;-62
2022/03/19 10:58:16;;;;;;;5.10;0.70;;;;;;;;;;5028571;28;20073;-63
2022/03/19 11:00:44;;;;;;;2.80;0.40;;;;;;;;;;5028728;28;20053;-63
2022/03/19 11:03:13;;;;;;;4.93;0.90;;;;;;;;;;5030276;28;20073;-63
2022/03/19 11:05:39;;;;;;;5.75;0.65;;;;;;;;;;5030327;28;20069;-63
2022/03/19 11:08:09;;;;;;;5.60;0.68;;;;;;;;;;5028514;28;20381;-63
2022/03/19 11:10:38;;;;;;;4.45;0.65;;;;;;;;;;5030092;28;20080;-62
2022/03/19 11:13:05;;;;;;;7.78;3.75;;;;;;;;;;5030182;28;20087;-62
2022/03/19 11:15:32;;;;;;;3.88;1.10;;;;;;;;;;5030048;28;20080;-62
2022/03/19 11:18:01;;;;;;;5.50;0.85;;;;;;;;;;5029692;28;20487;-62
2022/03/19 11:20:27;;;;;;;3.28;0.70;;;;;;;;;;5028987;28;20092;-62
2022/03/19 11:22:54;;;;;;;4.35;0.70;;;;;;;;;;5028452;28;20443;-62
2022/03/19 11:25:26;;;;;;;3.50;0.73;;;;;;;;;;5028296;28;20049;-63
2022/03/19 11:27:58;;;;;;;4.03;0.73;;;;;;;;;;5027937;28;20112;-62
2022/03/19 11:30:25;;;;;;;4.30;0.65;;;;;;;;;;5030040;28;20092;-63
2022/03/19 11:33:01;;;;;;;5.45;0.75;;;;;;;;;;5028170;28;20091;-62
2022/03/19 11:35:28;;;;;;;4.00;0.60;;;;;;;;;;5028103;28;20124;-62
2022/03/19 11:38:03;;;;;;;2.17;0.30;;;;;;;;;;5029835;28;20087;-63
2022/03/19 11:40:31;;;;;;;3.70;0.50;;;;;;;;;;5029574;28;20046;-63
2022/03/19 11:42:58;;;;;;;2.47;0.50;;;;;;;;;;5029629;28;20387;-63
2022/03/19 11:45:25;;;;;;;2.65;0.43;;;;;;;;;;5029168;28;20060;-63
2022/03/19 11:47:51;;;;;;;7.15;0.85;;;;;;;;;;5029342;28;20049;-63
2022/03/19 11:50:18;;;;;;;3.88;0.40;;;;;;;;;;5029792;28;20041;-63
2022/03/19 11:52:46;;;;;;;2.33;0.40;;;;;;;;;;5028129;28;20045;-62
2022/03/19 11:55:13;;;;;;;5.03;0.60;;;;;;;;;;5029360;28;20088;-63
2022/03/19 11:57:49;;;;;;;6.72;0.70;;;;;;;;;;5027833;28;20499;-63
2022/03/19 12:00:16;;;;;;;2.88;0.50;;;;;;;;;;5025684;28;20180;-63
2022/03/19 12:03:02;;;;;;;4.80;0.68;;;;;;;;;;5027409;28;20040;-62
2022/03/19 12:05:28;;;;;;;4.68;0.50;;;;;;;;;;5028172;28;20037;-64
2022/03/19 12:07:57;;;;;;;6.68;0.85;;;;;;;;;;5026695;28;20048;-63
2022/03/19 12:10:24;;;;;;;3.97;0.70;;;;;;;;;;5026180;28;20517;-63
2022/03/19 12:12:51;;;;;;;3.80;0.40;;;;;;;;;;5028036;28;20503;-63
2022/03/19 12:15:32;;;;;;;3.05;0.90;;;;;;;;;;5027673;28;20049;-63
2022/03/19 12:18:17;;;;;;;3.67;0.60;;;;;;;;;;5026962;28;20049;-63
2022/03/19 12:20:43;;;;;;;4.43;0.65;;;;;;;;;;5020911;28;20037;-62
2022/03/19 12:23:12;;;;;;;2.97;0.40;;;;;;;;;;5028025;28;20124;-63
2022/03/19 12:25:42;;;;;;;3.22;0.38;;;;;;;;;;5026131;28;20044;-62
2022/03/19 12:28:08;;;;;;;3.22;0.57;;;;;;;;;;5027360;28;20053;-62
2022/03/19 12:30:35;;;;;;;3.72;0.50;;;;;;;;;;5026250;28;20033;-63
2022/03/19 12:33:02;;;;;;;5.72;0.50;;;;;;;;;;5031782;28;20146;-63
2022/03/19 12:35:43;;;;;;;4.35;0.60;;;;;;;;;;5031076;28;20045;-63
2022/03/19 12:38:09;;;;;;;3.92;0.52;;;;;;;;;;5027800;28;20083;-61
2022/03/19 12:43:21;;;;;;;4.47;0.50;;;;;;;;;;5028052;28;20064;-63
2022/03/19 12:45:49;;;;;;;2.85;0.50;;;;;;;;;;5028820;28;20099;-62
2022/03/19 12:48:20;;;;;;;4.60;0.60;;;;;;;;;;5031009;28;20633;-62
2022/03/19 12:50:49;;;;;;;5.35;0.75;;;;;;;;;;5030620;28;20132;-62
2022/03/19 12:53:15;;;;;;;6.28;0.80;;;;;;;;;;5032417;28;20037;-62
2022/03/19 12:55:41;;;;;;;3.53;0.63;;;;;;;;;;5030349;28;20132;-63
2022/03/19 12:58:07;;;;;;;4.72;0.70;;;;;;;;;;5013215;28;20080;-63
2022/03/19 13:00:33;;;;;;;3.13;0.50;;;;;;;;;;5031598;28;20034;-63
2022/03/19 13:03:00;;;;;;;6.75;0.73;;;;;;;;;;5029910;28;20679;-62
2022/03/19 13:05:26;;;;;;;4.35;0.60;;;;;;;;;;5030513;28;20052;-62
2022/03/19 13:08:06;;;;;;;2.22;0.50;;;;;;;;;;5031860;28;20045;-64
2022/03/19 13:10:50;;;;;;;6.13;0.70;;;;;;;;;;5012161;28;20579;-62
2022/03/19 13:13:18;;;;;;;4.97;0.90;;;;;;;;;;5012328;28;20049;-62
2022/03/19 13:15:50;;;;;;;5.55;0.60;;;;;;;;;;5012157;28;20085;-62
2022/03/19 13:18:32;;;;;;;3.00;0.40;;;;;;;;;;5010736;28;20081;-63
2022/03/19 13:21:06;;;;;;;4.85;0.60;;;;;;;;;;5018135;28;20120;-63
2022/03/19 13:23:33;;;;;;;5.60;0.60;;;;;;;;;;5031387;28;20064;-62
2022/03/19 13:26:00;;;;;;;4.68;0.60;;;;;;;;;;5030118;28;20099;-62
2022/03/19 13:28:26;;;;;;;4.00;0.50;;;;;;;;;;5031227;28;20581;-61
2022/03/19 13:30:52;;;;;;;5.03;0.75;;;;;;;;;;5029249;28;20049;-63
2022/03/19 13:33:18;;;;;;;3.67;0.68;;;;;;;;;;5029352;28;20084;-62
2022/03/19 13:35:47;;;;;;;3.05;0.73;;;;;;;;;;5028861;28;20494;-63
2022/03/19 13:38:18;;;;;;;2.47;0.50;;;;;;;;;;5028270;28;20045;-63
2022/03/19 13:40:45;;;;;;;3.58;0.60;;;;;;;;;;5027384;28;20075;-63
2022/03/19 13:43:12;;;;;;;4.65;0.65;;;;;;;;;;5027251;28;20033;-63
2022/03/19 13:45:38;;;;;;;6.90;0.68;;;;;;;;;;5027970;28;20069;-62
2022/03/19 13:48:09;;;;;;;4.40;0.70;;;;;;;;;;5029920;28;20120;-63
2022/03/19 13:50:41;;;;;;;2.83;0.55;;;;;;;;;;5041991;28;20046;-62
2022/03/19 13:53:08;;;;;;;5.47;0.70;;;;;;;;;;5029644;28;20112;-62
2022/03/19 13:55:35;;;;;;;6.50;1.20;;;;;;;;;;5028240;28;20053;-63
2022/03/19 13:58:06;;;;;;;4.75;0.70;;;;;;;;;;5026353;28;20464;-62
2022/03/19 14:00:37;;;;;;;5.88;0.93;;;;;;;;;;5028477;28;20053;-62
2022/03/19 14:03:07;;;;;;;3.92;0.52;;;;;;;;;;5026960;28;20049;-63
2022/03/19 14:05:34;;;;;;;4.10;0.82;;;;;;;;;;5029245;28;20049;-63
2022/03/19 14:08:03;;;;;;;6.60;1.08;;;;;;;;;;5029556;28;20038;-62
2022/03/19 14:10:34;;;;;;;3.60;0.70;;;;;;;;;;5030858;28;20132;-62
2022/03/19 14:13:03;;;;;;;2.75;0.50;;;;;;;;;;5031200;28;20499;-63
2022/03/19 14:15:36;;;;;;;5.53;0.52;;;;;;;;;;5030765;28;20099;-63
2022/03/19 14:18:02;;;;;;;4.50;0.82;;;;;;;;;;5031670;28;20068;-61
2022/03/19 14:20:28;;;;;;;7.22;0.90;;;;;;;;;;5029985;28;20051;-62
2022/03/19 14:22:54;;;;;;;5.45;0.80;;;;;;;;;;5029300;28;20049;-62
2022/03/19 14:25:21;;;;;;;5.60;0.73;;;;;;;;;;5030287;28;20053;-62
2022/03/19 14:27:47;;;;;;;4.05;0.68;;;;;;;;;;5012352;28;20058;-62
2022/03/19 14:30:14;;;;;;;5.13;1.30;;;;;;;;;;5028951;28;20053;-62
2022/03/19 14:32:41;;;;;;;3.70;0.60;;;;;;;;;;5028403;28;20056;-62
2022/03/19 14:35:26;;;;;;;6.57;0.95;;;;;;;;;;5029031;28;20038;-62
2022/03/19 14:37:52;;;;;;;4.70;0.52;;;;;;;;;;5025684;28;20138;-62
2022/03/19 14:40:18;;;;;;;5.82;1.10;;;;;;;;;;5028489;28;20116;-62
2022/03/19 14:42:44;;;;;;;7.15;1.45;;;;;;;;;;5028953;28;20127;-63
2022/03/19 14:45:10;;;;;;;2.55;0.63;;;;;;;;;;5028530;28;20049;-61
2022/03/19 14:47:37;;;;;;;5.28;1.23;;;;;;;;;;5030603;28;20455;-63
2022/03/19 14:50:04;;;;;;;5.43;1.02;;;;;;;;;;5025554;28;20115;-62